Terminal Aerodrome Forecast
Issued by NWS

Home | Current Version | Previous Version | Text Only | Print | Product List | Glossary On
Versions: 1 2 3 4 5 6 7 8 9 10 11 12 13
000
FTUS46 KEKA 032330
TAFUKI
TAF
KUKI 032330Z 0400/0424 VRB05KT P6SM SCT200
     FM040300 00000KT P6SM SCT200
     FM041200 00000KT 6SM BR FEW200
     FM041800 VRB03KT P6SM SKC=

USA.gov is the U.S. government's official web portal to all federal, state and local government web resources and services.